createdAt,value
2023-01-11T00:00:11.078Z,0.76
2023-01-11T00:01:11.115Z,0.80
2023-01-11T00:02:11.126Z,0.88
2023-01-11T00:03:11.076Z,1.26
2023-01-11T00:04:11.072Z,0.74
2023-01-11T00:05:11.084Z,0.70
2023-01-11T00:06:11.076Z,0.58
2023-01-11T00:07:11.073Z,1.62
2023-01-11T00:08:11.111Z,1.50
2023-01-11T00:09:11.122Z,0.82
2023-01-11T00:10:11.088Z,1.44
2023-01-11T00:11:15.074Z,0.82
2023-01-11T00:12:11.081Z,0.98
2023-01-11T00:13:11.083Z,1.96
2023-01-11T00:14:11.087Z,0.74
2023-01-11T00:15:11.077Z,1.00
2023-01-11T00:16:11.180Z,0.64
2023-01-11T00:17:11.075Z,1.30
2023-01-11T00:18:11.094Z,0.82
2023-01-11T00:19:11.082Z,0.82
2023-01-11T00:20:11.093Z,2.12
2023-01-11T00:21:11.082Z,1.76
2023-01-11T00:22:11.072Z,0.92
2023-01-11T00:23:11.077Z,1.72
2023-01-11T00:24:11.084Z,1.32
2023-01-11T00:25:11.079Z,1.02
2023-01-11T00:26:11.086Z,2.26
2023-01-11T00:27:11.084Z,1.30
2023-01-11T00:28:11.073Z,1.56
2023-01-11T00:29:11.086Z,2.26
2023-01-11T00:30:11.079Z,2.04
2023-01-11T00:31:11.141Z,0.86
2023-01-11T00:32:11.089Z,1.08
2023-01-11T00:33:12.080Z,2.46
2023-01-11T00:34:11.075Z,1.24
2023-01-11T00:35:11.092Z,0.92
2023-01-11T00:36:11.084Z,1.38
2023-01-11T00:37:11.076Z,1.10
2023-01-11T00:38:11.082Z,0.76
2023-01-11T00:39:11.088Z,0.92
2023-01-11T00:40:11.103Z,0.84
2023-01-11T00:41:17.078Z,1.18
2023-01-11T00:42:15.089Z,0.88
2023-01-11T00:43:15.082Z,1.28
2023-01-11T00:44:15.083Z,1.56
2023-01-11T00:45:15.079Z,1.22
2023-01-11T00:46:15.147Z,0.94
2023-01-11T00:47:17.081Z,1.38
2023-01-11T00:48:11.082Z,1.94
2023-01-11T00:49:11.077Z,1.06
2023-01-11T00:50:11.090Z,1.34
2023-01-11T00:51:11.081Z,1.70
2023-01-11T00:52:12.086Z,1.18
2023-01-11T00:53:11.087Z,0.88
2023-01-11T00:54:11.083Z,1.12
2023-01-11T00:55:11.082Z,1.74
2023-01-11T00:56:11.084Z,0.92
2023-01-11T00:57:12.076Z,1.56
2023-01-11T00:58:11.081Z,0.98
2023-01-11T00:59:11.084Z,0.86
2023-01-11T01:00:11.061Z,1.20
2023-01-11T01:01:11.098Z,1.30
2023-01-11T01:02:11.186Z,0.78
2023-01-11T01:03:11.061Z,1.12
2023-01-11T01:04:11.063Z,1.24
2023-01-11T01:05:11.082Z,1.12
2023-01-11T01:06:11.061Z,1.50
2023-01-11T01:07:11.065Z,1.18
2023-01-11T01:08:11.074Z,2.04
2023-01-11T01:09:11.060Z,1.24
2023-01-11T01:10:11.064Z,1.54
2023-01-11T01:11:11.063Z,1.14
2023-01-11T01:12:11.065Z,1.86
2023-01-11T01:13:15.070Z,1.42
2023-01-11T01:14:15.076Z,1.02
2023-01-11T01:15:11.065Z,1.70
2023-01-11T01:16:11.109Z,1.44
2023-01-11T01:17:13.067Z,0.96
2023-01-11T01:18:11.066Z,1.40
2023-01-11T01:19:11.059Z,1.24
2023-01-11T01:20:11.065Z,1.40
2023-01-11T01:21:11.071Z,1.42
2023-01-11T01:22:11.063Z,1.88
2023-01-11T01:23:11.069Z,1.84
2023-01-11T01:24:11.072Z,2.30
2023-01-11T01:25:11.063Z,2.38
2023-01-11T01:26:11.076Z,1.52
2023-01-11T01:27:11.075Z,1.50
2023-01-11T01:28:11.065Z,2.04
2023-01-11T01:29:11.068Z,1.72
2023-01-11T01:30:11.074Z,1.36
2023-01-11T01:31:11.124Z,1.92
2023-01-11T01:32:11.066Z,1.70
2023-01-11T01:33:11.073Z,1.68
2023-01-11T01:34:11.070Z,2.14
2023-01-11T01:35:11.077Z,1.96
2023-01-11T01:36:11.074Z,1.48
2023-01-11T01:37:11.084Z,1.66
2023-01-11T01:38:11.067Z,3.22
2023-01-11T01:39:11.080Z,2.14
2023-01-11T01:40:11.067Z,2.98
2023-01-11T01:41:12.076Z,1.48
2023-01-11T01:42:15.068Z,2.10
2023-01-11T01:43:13.064Z,1.76
2023-01-11T01:44:19.065Z,1.90
2023-01-11T01:45:19.102Z,2.20
2023-01-11T01:46:11.119Z,1.82
2023-01-11T01:47:11.067Z,3.28
2023-01-11T01:48:12.066Z,1.60
2023-01-11T01:49:13.069Z,1.72
2023-01-11T01:50:15.080Z,1.90
2023-01-11T01:51:13.078Z,1.50
2023-01-11T01:52:11.069Z,1.18
2023-01-11T01:53:14.067Z,0.98
2023-01-11T01:54:12.061Z,1.34
2023-01-11T01:55:12.074Z,1.62
2023-01-11T01:56:13.067Z,2.18
2023-01-11T01:57:19.067Z,1.62
2023-01-11T01:58:16.076Z,1.54
2023-01-11T01:59:13.067Z,1.94
2023-01-11T02:00:11.070Z,1.40
2023-01-11T02:01:18.082Z,1.60
2023-01-11T02:02:11.075Z,2.80
2023-01-11T02:03:13.066Z,1.72
2023-01-11T02:04:17.067Z,1.58
2023-01-11T02:05:11.077Z,1.84
2023-01-11T02:06:11.071Z,2.72
2023-01-11T02:07:19.070Z,1.64
2023-01-11T02:08:16.067Z,1.58
2023-01-11T02:09:19.097Z,2.64
2023-01-11T02:10:15.073Z,1.84
2023-01-11T02:11:16.064Z,1.36
2023-01-11T02:12:11.071Z,2.00
2023-01-11T02:13:12.078Z,2.08
2023-01-11T02:14:14.067Z,1.76
2023-01-11T02:15:11.067Z,2.86
2023-01-11T02:16:13.165Z,1.54
2023-01-11T02:17:11.069Z,3.26
2023-01-11T02:18:14.067Z,2.16
2023-01-11T02:19:21.076Z,2.14
2023-01-11T02:20:21.093Z,1.64
2023-01-11T02:21:21.079Z,2.82
2023-01-11T02:22:19.067Z,1.60
2023-01-11T02:23:19.067Z,1.94
2023-01-11T02:24:19.091Z,2.10
2023-01-11T02:25:19.083Z,2.10
2023-01-11T02:26:19.079Z,2.10
2023-01-11T02:27:21.071Z,2.44
2023-01-11T02:28:17.070Z,2.14
2023-01-11T02:29:21.072Z,2.22
2023-01-11T02:30:18.094Z,1.80
2023-01-11T02:31:21.098Z,2.42
2023-01-11T02:32:19.072Z,2.04
2023-01-11T02:33:21.069Z,2.52
2023-01-11T02:34:19.076Z,1.76
2023-01-11T02:35:19.091Z,3.18
2023-01-11T02:36:19.079Z,2.48
2023-01-11T02:37:19.071Z,1.66
2023-01-11T02:38:19.070Z,3.40
2023-01-11T02:39:19.067Z,2.50
2023-01-11T02:40:23.075Z,1.68
2023-01-11T02:41:21.084Z,1.94
2023-01-11T02:42:21.072Z,1.72
2023-01-11T02:43:26.069Z,2.44
2023-01-11T02:44:16.072Z,1.52
2023-01-11T02:45:21.075Z,2.16
2023-01-11T02:46:17.106Z,2.16
2023-01-11T02:47:13.087Z,2.46
2023-01-11T02:48:17.069Z,2.36
2023-01-11T02:49:19.068Z,2.46
2023-01-11T02:50:18.068Z,1.76
2023-01-11T02:51:13.080Z,2.20
2023-01-11T02:52:19.079Z,2.70
2023-01-11T02:53:18.068Z,2.40
2023-01-11T02:54:14.134Z,1.28
2023-01-11T02:55:12.079Z,2.98
2023-01-11T02:56:13.076Z,1.78
2023-01-11T02:57:11.074Z,2.06
2023-01-11T02:58:12.077Z,3.36
2023-01-11T02:59:13.075Z,2.82
2023-01-11T03:00:11.067Z,1.76
2023-01-11T03:01:11.073Z,3.40
2023-01-11T03:02:12.073Z,4.12
2023-01-11T03:03:15.117Z,2.06
2023-01-11T03:04:19.075Z,2.04
2023-01-11T03:05:14.080Z,2.44
2023-01-11T03:06:21.161Z,2.00
2023-01-11T03:07:19.072Z,2.10
2023-01-11T03:08:21.076Z,2.38
2023-01-11T03:09:19.077Z,1.70
2023-01-11T03:10:19.086Z,1.54
2023-01-11T03:11:19.097Z,3.06
2023-01-11T03:12:25.074Z,1.64
2023-01-11T03:13:19.071Z,1.74
2023-01-11T03:14:19.076Z,2.18
2023-01-11T03:15:19.078Z,2.52
2023-01-11T03:16:21.121Z,2.56
2023-01-11T03:17:21.077Z,2.18
2023-01-11T03:18:21.075Z,1.76
2023-01-11T03:19:21.086Z,1.80
2023-01-11T03:20:17.082Z,1.68
2023-01-11T03:21:21.073Z,3.08
2023-01-11T03:22:18.071Z,2.82
2023-01-11T03:23:23.087Z,2.30
2023-01-11T03:24:19.073Z,2.12
2023-01-11T03:25:19.091Z,1.84
2023-01-11T03:26:21.100Z,2.32
2023-01-11T03:27:19.079Z,2.24
2023-01-11T03:28:19.077Z,2.34
2023-01-11T03:29:21.077Z,2.62
2023-01-11T03:30:16.077Z,3.52
2023-01-11T03:31:17.130Z,3.14
2023-01-11T03:32:18.084Z,4.00
2023-01-11T03:33:21.072Z,1.64
2023-01-11T03:34:21.083Z,3.28
2023-01-11T03:35:18.090Z,2.18
2023-01-11T03:36:21.083Z,2.82
2023-01-11T03:37:18.077Z,2.56
2023-01-11T03:38:19.076Z,2.32
2023-01-11T03:39:19.123Z,2.66
2023-01-11T03:40:16.097Z,3.76
2023-01-11T03:41:15.077Z,3.40
2023-01-11T03:42:11.077Z,3.60
2023-01-11T03:43:16.072Z,2.86
2023-01-11T03:44:11.083Z,2.08
2023-01-11T03:45:11.076Z,3.92
2023-01-11T03:46:17.156Z,3.18
2023-01-11T03:47:12.075Z,3.12
2023-01-11T03:48:15.078Z,2.86
2023-01-11T03:49:14.075Z,2.24
2023-01-11T03:50:12.080Z,3.86
2023-01-11T03:51:14.083Z,1.72
2023-01-11T03:52:13.076Z,2.38
2023-01-11T03:53:11.077Z,2.84
2023-01-11T03:54:13.080Z,3.36
2023-01-11T03:55:12.073Z,3.10
2023-01-11T03:56:12.075Z,2.30
2023-01-11T03:57:19.079Z,3.04
2023-01-11T03:58:11.096Z,2.82
2023-01-11T03:59:11.094Z,2.84
2023-01-11T04:00:11.070Z,2.60
2023-01-11T04:01:11.117Z,2.52
2023-01-11T04:02:15.063Z,2.64
2023-01-11T04:03:11.063Z,2.96
2023-01-11T04:04:11.154Z,2.84
2023-01-11T04:05:11.065Z,3.28
2023-01-11T04:06:11.062Z,3.28
2023-01-11T04:07:11.064Z,3.22
2023-01-11T04:08:11.074Z,3.56
2023-01-11T04:09:11.064Z,2.02
2023-01-11T04:10:11.072Z,2.40
2023-01-11T04:11:11.072Z,3.10
2023-01-11T04:12:11.070Z,4.00
2023-01-11T04:13:11.065Z,3.18
2023-01-11T04:14:11.073Z,2.70
2023-01-11T04:15:11.070Z,3.46
2023-01-11T04:16:11.117Z,2.96
2023-01-11T04:17:11.073Z,2.58
2023-01-11T04:18:11.065Z,2.76
2023-01-11T04:19:11.064Z,2.38
2023-01-11T04:20:13.064Z,2.78
2023-01-11T04:21:11.067Z,3.14
2023-01-11T04:22:11.096Z,2.92
2023-01-11T04:23:11.066Z,2.70
2023-01-11T04:24:11.067Z,3.28
2023-01-11T04:25:11.083Z,2.82
2023-01-11T04:26:11.069Z,4.62
2023-01-11T04:27:11.073Z,2.60
2023-01-11T04:28:11.081Z,2.58
2023-01-11T04:29:11.072Z,3.18
2023-01-11T04:30:11.067Z,2.42
2023-01-11T04:31:11.131Z,2.88
2023-01-11T04:32:11.069Z,2.10
2023-01-11T04:33:11.074Z,2.78
2023-01-11T04:34:11.071Z,2.00
2023-01-11T04:35:11.063Z,4.12
2023-01-11T04:36:11.069Z,2.08
2023-01-11T04:37:11.067Z,2.36
2023-01-11T04:38:11.066Z,2.32
2023-01-11T04:39:11.090Z,2.36
2023-01-11T04:40:11.071Z,2.10
2023-01-11T04:41:15.073Z,1.74
2023-01-11T04:42:15.080Z,2.10
2023-01-11T04:43:11.075Z,2.38
2023-01-11T04:44:11.079Z,2.80
2023-01-11T04:45:11.064Z,1.66
2023-01-11T04:46:11.083Z,2.70
2023-01-11T04:47:11.069Z,3.34
2023-01-11T04:48:11.066Z,3.10
2023-01-11T04:49:11.069Z,2.48
2023-01-11T04:50:11.140Z,3.00
2023-01-11T04:51:11.069Z,1.82
2023-01-11T04:52:11.067Z,1.62
2023-01-11T04:53:11.067Z,2.94
2023-01-11T04:54:11.068Z,1.96
2023-01-11T04:55:11.066Z,2.10
2023-01-11T04:56:11.073Z,2.52
2023-01-11T04:57:12.066Z,1.98
2023-01-11T04:58:11.071Z,2.56
2023-01-11T04:59:11.076Z,3.06
2023-01-11T05:00:14.069Z,2.02
2023-01-11T05:01:11.160Z,2.24
2023-01-11T05:02:11.068Z,2.12
2023-01-11T05:03:11.074Z,4.66
2023-01-11T05:04:13.308Z,2.12
2023-01-11T05:05:11.087Z,2.60
2023-01-11T05:06:11.078Z,4.88
2023-01-11T05:07:11.065Z,2.90
2023-01-11T05:08:11.078Z,3.04
2023-01-11T05:09:14.073Z,2.08
2023-01-11T05:10:11.070Z,2.80
2023-01-11T05:11:11.074Z,2.92
2023-01-11T05:12:11.078Z,2.42
2023-01-11T05:13:11.068Z,2.72
2023-01-11T05:14:11.078Z,3.70
2023-01-11T05:15:11.073Z,3.26
2023-01-11T05:16:18.120Z,3.04
2023-01-11T05:17:14.070Z,2.88
2023-01-11T05:18:11.078Z,2.86
2023-01-11T05:19:11.073Z,2.44
2023-01-11T05:20:11.067Z,2.64
2023-01-11T05:21:11.081Z,2.84
2023-01-11T05:22:11.076Z,2.88
2023-01-11T05:23:11.072Z,4.26
2023-01-11T05:24:12.072Z,2.48
2023-01-11T05:25:11.074Z,2.84
2023-01-11T05:26:11.103Z,2.36
2023-01-11T05:27:11.077Z,3.66
2023-01-11T05:28:11.072Z,3.74
2023-01-11T05:29:14.073Z,2.70
2023-01-11T05:30:11.071Z,3.12
2023-01-11T05:31:11.075Z,2.72
2023-01-11T05:32:11.070Z,2.30
2023-01-11T05:33:11.073Z,2.88
2023-01-11T05:34:14.080Z,2.62
2023-01-11T05:35:13.067Z,2.94
2023-01-11T05:36:15.072Z,3.48
2023-01-11T05:37:11.081Z,2.90
2023-01-11T05:38:11.071Z,2.92
2023-01-11T05:39:13.069Z,5.92
2023-01-11T05:40:11.080Z,2.78
2023-01-11T05:41:11.070Z,3.38
2023-01-11T05:42:11.079Z,2.62
2023-01-11T05:43:11.078Z,3.06
2023-01-11T05:44:15.101Z,4.26
2023-01-11T05:45:15.084Z,3.70
2023-01-11T05:46:11.089Z,3.86
2023-01-11T05:47:11.073Z,3.22
2023-01-11T05:48:11.069Z,3.74
2023-01-11T05:49:11.073Z,2.94
2023-01-11T05:50:11.092Z,4.08
2023-01-11T05:51:11.073Z,3.04
2023-01-11T05:52:11.073Z,2.26
2023-01-11T05:53:11.081Z,4.30
2023-01-11T05:54:12.076Z,2.18
2023-01-11T05:55:11.079Z,3.08
2023-01-11T05:56:11.110Z,3.60
2023-01-11T05:57:14.073Z,3.26
2023-01-11T05:58:11.081Z,3.30
2023-01-11T05:59:11.078Z,1.78
2023-01-11T06:00:11.073Z,3.74
2023-01-11T06:01:12.072Z,2.48
2023-01-11T06:02:11.143Z,2.30
2023-01-11T06:03:11.110Z,3.30
2023-01-11T06:04:11.105Z,3.84
2023-01-11T06:05:11.074Z,4.08
2023-01-11T06:06:11.076Z,3.02
2023-01-11T06:07:11.074Z,3.94
2023-01-11T06:08:11.083Z,2.90
2023-01-11T06:09:11.073Z,2.72
2023-01-11T06:10:11.070Z,2.98
2023-01-11T06:11:11.074Z,4.30
2023-01-11T06:12:11.076Z,2.46
2023-01-11T06:13:15.092Z,5.28
2023-01-11T06:14:11.073Z,3.66
2023-01-11T06:15:11.074Z,3.46
2023-01-11T06:16:15.143Z,2.80
2023-01-11T06:17:11.087Z,2.76
2023-01-11T06:18:11.081Z,3.08
2023-01-11T06:19:11.072Z,3.30
2023-01-11T06:20:11.075Z,3.44
2023-01-11T06:21:11.081Z,5.78
2023-01-11T06:22:11.075Z,3.84
2023-01-11T06:23:11.077Z,3.26
2023-01-11T06:24:11.084Z,2.60
2023-01-11T06:25:11.079Z,4.20
2023-01-11T06:26:12.076Z,3.18
2023-01-11T06:27:11.086Z,2.34
2023-01-11T06:28:11.079Z,4.12
2023-01-11T06:29:11.076Z,2.68
2023-01-11T06:30:11.083Z,2.52
2023-01-11T06:31:11.229Z,3.04
2023-01-11T06:32:11.110Z,2.50
2023-01-11T06:33:11.083Z,2.64
2023-01-11T06:34:11.074Z,2.96
2023-01-11T06:35:11.075Z,2.84
2023-01-11T06:36:11.079Z,2.76
2023-01-11T06:37:12.074Z,2.82
2023-01-11T06:38:11.075Z,3.06
2023-01-11T06:39:11.088Z,3.30
2023-01-11T06:40:11.105Z,2.52
2023-01-11T06:41:12.077Z,3.42
2023-01-11T06:42:11.076Z,2.50
2023-01-11T06:43:11.080Z,2.64
2023-01-11T06:44:11.095Z,3.08
2023-01-11T06:45:11.075Z,2.92
2023-01-11T06:46:15.177Z,3.00
2023-01-11T06:47:11.075Z,3.58
2023-01-11T06:48:11.082Z,3.04
2023-01-11T06:49:11.101Z,2.58
2023-01-11T06:50:11.075Z,4.14
2023-01-11T06:51:11.105Z,4.20
2023-01-11T06:52:11.083Z,2.72
2023-01-11T06:53:11.090Z,2.76
2023-01-11T06:54:11.089Z,2.56
2023-01-11T06:55:11.083Z,2.96
2023-01-11T06:56:12.078Z,2.06
2023-01-11T06:57:11.071Z,3.06
2023-01-11T06:58:11.084Z,4.42
2023-01-11T06:59:11.078Z,4.54
2023-01-11T07:00:11.055Z,3.22
2023-01-11T07:01:11.129Z,2.74
2023-01-11T07:02:11.063Z,3.76
2023-01-11T07:03:11.065Z,2.82
2023-01-11T07:04:11.071Z,3.06
2023-01-11T07:05:11.085Z,2.66
2023-01-11T07:06:11.068Z,3.44
2023-01-11T07:07:11.064Z,2.96
2023-01-11T07:08:11.071Z,2.78
2023-01-11T07:09:11.065Z,3.58
2023-01-11T07:10:11.065Z,3.30
2023-01-11T07:11:11.185Z,4.38
2023-01-11T07:12:11.075Z,3.86
2023-01-11T07:13:13.070Z,3.64
2023-01-11T07:14:11.064Z,3.22
2023-01-11T07:15:11.060Z,2.72
2023-01-11T07:16:11.136Z,2.28
2023-01-11T07:17:11.066Z,3.30
2023-01-11T07:18:11.073Z,2.54
2023-01-11T07:19:11.071Z,3.14
2023-01-11T07:20:11.085Z,3.50
2023-01-11T07:21:11.060Z,4.24
2023-01-11T07:22:11.062Z,2.54
2023-01-11T07:23:11.096Z,2.78
2023-01-11T07:24:11.063Z,2.52
2023-01-11T07:25:11.067Z,3.06
2023-01-11T07:26:11.089Z,3.10
2023-01-11T07:27:11.062Z,2.50
2023-01-11T07:28:11.064Z,3.02
2023-01-11T07:29:11.070Z,2.78
2023-01-11T07:30:11.061Z,2.32
2023-01-11T07:31:11.153Z,2.30
2023-01-11T07:32:11.075Z,2.32
2023-01-11T07:33:11.064Z,2.22
2023-01-11T07:34:11.066Z,3.20
2023-01-11T07:35:11.071Z,2.92
2023-01-11T07:36:11.064Z,3.12
2023-01-11T07:37:28.570Z,2.78
2023-01-11T07:38:15.587Z,2.90
2023-01-11T07:39:11.071Z,4.20
2023-01-11T07:40:11.066Z,2.28
2023-01-11T07:41:15.066Z,4.36
2023-01-11T07:42:15.376Z,3.54
2023-01-11T07:43:15.461Z,2.84
2023-01-11T07:44:11.066Z,3.38
2023-01-11T07:45:11.076Z,3.40
2023-01-11T07:46:11.172Z,2.92
2023-01-11T07:47:11.141Z,2.06
2023-01-11T07:48:11.082Z,2.56
2023-01-11T07:49:11.073Z,3.24
2023-01-11T07:50:11.065Z,3.98
2023-01-11T07:51:11.066Z,2.86
2023-01-11T07:52:11.068Z,2.62
2023-01-11T07:53:11.097Z,3.92
2023-01-11T07:54:11.062Z,2.64
2023-01-11T07:55:11.065Z,3.26
2023-01-11T07:56:11.069Z,2.46
2023-01-11T07:57:11.062Z,4.46
2023-01-11T07:58:11.070Z,2.76
2023-01-11T07:59:11.067Z,2.42
2023-01-11T08:00:11.067Z,2.84
2023-01-11T08:01:11.070Z,3.00
2023-01-11T08:02:11.079Z,3.06
2023-01-11T08:03:11.256Z,2.28
2023-01-11T08:04:11.069Z,3.38
2023-01-11T08:05:11.069Z,2.00
2023-01-11T08:06:11.062Z,2.22
2023-01-11T08:07:11.074Z,3.04
2023-01-11T08:08:11.072Z,1.82
2023-01-11T08:09:11.074Z,1.96
2023-01-11T08:10:11.075Z,2.06
2023-01-11T08:11:15.067Z,3.18
2023-01-11T08:12:15.068Z,2.94
2023-01-11T08:13:15.070Z,2.52
2023-01-11T08:14:15.086Z,2.50
2023-01-11T08:15:11.069Z,2.32
2023-01-11T08:16:11.080Z,5.04
2023-01-11T08:17:14.076Z,2.36
2023-01-11T08:18:11.068Z,2.64
2023-01-11T08:19:11.066Z,3.10
2023-01-11T08:20:11.074Z,2.38
2023-01-11T08:21:12.425Z,3.08
2023-01-11T08:22:11.068Z,2.76
2023-01-11T08:23:11.068Z,3.32
2023-01-11T08:24:11.071Z,2.70
2023-01-11T08:25:11.076Z,2.04
2023-01-11T08:26:11.067Z,3.74
2023-01-11T08:27:11.129Z,3.00
2023-01-11T08:28:11.070Z,3.02
2023-01-11T08:29:11.073Z,3.38
2023-01-11T08:30:11.069Z,2.62
2023-01-11T08:31:11.118Z,2.18
2023-01-11T08:32:11.068Z,2.92
2023-01-11T08:33:11.080Z,2.24
2023-01-11T08:34:11.067Z,3.26
2023-01-11T08:35:11.073Z,2.60
2023-01-11T08:36:11.099Z,3.14
2023-01-11T08:37:11.075Z,2.66
2023-01-11T08:38:11.072Z,3.36
2023-01-11T08:39:11.075Z,2.72
2023-01-11T08:40:11.070Z,2.80
2023-01-11T08:41:15.071Z,2.68
2023-01-11T08:42:11.096Z,4.82
2023-01-11T08:43:11.071Z,3.86
2023-01-11T08:44:11.896Z,2.88
2023-01-11T08:45:11.077Z,2.42
2023-01-11T08:46:11.120Z,3.38
2023-01-11T08:47:11.067Z,2.78
2023-01-11T08:48:11.068Z,2.78
2023-01-11T08:49:15.068Z,2.94
2023-01-11T08:50:12.066Z,2.60
2023-01-11T08:51:11.072Z,2.40
2023-01-11T08:52:15.072Z,2.68
2023-01-11T08:53:12.224Z,3.12
2023-01-11T08:54:15.069Z,3.28
2023-01-11T08:55:11.079Z,2.24
2023-01-11T08:56:11.070Z,2.36
2023-01-11T08:57:11.078Z,2.48
2023-01-11T08:58:11.068Z,2.56
2023-01-11T08:59:11.070Z,2.78
2023-01-11T09:00:11.072Z,2.16
2023-01-11T09:01:12.081Z,2.76
2023-01-11T09:02:11.076Z,3.06
2023-01-11T09:03:11.131Z,2.50
2023-01-11T09:04:23.765Z,2.68
2023-01-11T09:05:13.331Z,2.68
2023-01-11T09:06:11.067Z,3.46
2023-01-11T09:07:11.076Z,2.46
2023-01-11T09:08:11.082Z,2.36
2023-01-11T09:09:11.070Z,2.32
2023-01-11T09:10:11.072Z,3.20
2023-01-11T09:11:15.079Z,2.34
2023-01-11T09:12:11.079Z,2.76
2023-01-11T09:13:11.072Z,4.10
2023-01-11T09:14:11.079Z,2.30
2023-01-11T09:15:11.090Z,2.08
2023-01-11T09:16:11.112Z,2.32
2023-01-11T09:17:11.081Z,1.56
2023-01-11T09:18:11.077Z,2.58
2023-01-11T09:19:11.069Z,3.28
2023-01-11T09:20:11.081Z,2.72
2023-01-11T09:21:11.072Z,2.88
2023-01-11T09:22:11.070Z,2.66
2023-01-11T09:23:11.074Z,3.00
2023-01-11T09:24:11.076Z,2.24
2023-01-11T09:25:11.076Z,2.78
2023-01-11T09:26:13.073Z,2.20
2023-01-11T09:27:11.164Z,1.88
2023-01-11T09:28:11.069Z,2.08
2023-01-11T09:29:11.258Z,1.76
2023-01-11T09:30:11.078Z,2.00
2023-01-11T09:31:11.108Z,4.80
2023-01-11T09:32:11.075Z,3.70
2023-01-11T09:33:11.073Z,2.68
2023-01-11T09:34:11.079Z,3.30
2023-01-11T09:35:11.076Z,2.98
2023-01-11T09:36:11.080Z,2.36
2023-01-11T09:37:11.073Z,3.44
2023-01-11T09:38:11.073Z,3.52
2023-01-11T09:39:12.085Z,2.22
2023-01-11T09:40:19.071Z,3.34
2023-01-11T09:41:23.074Z,2.24
2023-01-11T09:42:22.082Z,2.54
2023-01-11T09:43:13.078Z,2.14
2023-01-11T09:44:19.105Z,2.70
2023-01-11T09:45:17.095Z,2.66
2023-01-11T09:46:13.128Z,2.24
2023-01-11T09:47:21.082Z,2.20
2023-01-11T09:48:23.075Z,2.74
2023-01-11T09:49:22.076Z,3.28
2023-01-11T09:50:19.073Z,2.50
2023-01-11T09:51:11.077Z,2.08
2023-01-11T09:52:24.078Z,2.86
2023-01-11T09:53:19.084Z,2.08
2023-01-11T09:54:23.087Z,4.72
2023-01-11T09:55:18.077Z,2.20
2023-01-11T09:56:14.084Z,2.82
2023-01-11T09:57:19.075Z,1.74
2023-01-11T09:58:19.088Z,2.56
2023-01-11T09:59:22.077Z,2.00
2023-01-11T10:00:19.071Z,3.64
2023-01-11T10:01:25.071Z,2.18
2023-01-11T10:02:25.070Z,2.48
2023-01-11T10:03:19.074Z,2.82
2023-01-11T10:04:21.081Z,2.08
2023-01-11T10:05:22.070Z,3.46
2023-01-11T10:06:23.348Z,2.94
2023-01-11T10:07:22.072Z,2.26
2023-01-11T10:18:22.128Z,3.30
2023-01-11T10:18:32.991Z,2.38
2023-01-11T10:18:34.072Z,3.16
2023-01-11T10:18:40.561Z,3.20
2023-01-11T10:18:48.761Z,3.24
2023-01-11T10:19:37.472Z,1.98
2023-01-11T10:20:21.331Z,2.70
2023-01-11T10:21:15.115Z,2.76
2023-01-11T10:22:20.072Z,2.46
2023-01-11T10:23:20.075Z,2.94
2023-01-11T10:24:20.067Z,3.78
2023-01-11T10:25:22.071Z,2.24
2023-01-11T10:26:21.079Z,2.26
2023-01-11T10:27:24.075Z,3.18
2023-01-11T10:28:18.072Z,2.98
2023-01-11T10:29:19.083Z,4.32
2023-01-11T10:30:21.069Z,5.00
2023-01-11T10:31:18.167Z,2.56
2023-01-11T10:32:25.086Z,2.16
2023-01-11T10:33:23.074Z,2.20
2023-01-11T10:34:19.074Z,2.52
2023-01-11T10:35:26.089Z,2.56
2023-01-11T10:36:21.076Z,2.58
2023-01-11T10:37:16.070Z,3.54
2023-01-11T10:38:25.075Z,2.60
2023-01-11T10:39:21.087Z,2.10
2023-01-11T10:40:26.089Z,2.48
2023-01-11T10:41:28.078Z,2.88
2023-01-11T10:42:21.074Z,2.48
2023-01-11T10:43:17.205Z,2.76
2023-01-11T10:44:19.246Z,2.10
2023-01-11T10:45:19.074Z,2.34
2023-01-11T10:46:16.086Z,2.70
2023-01-11T10:47:17.077Z,2.12
2023-01-11T10:48:18.088Z,2.94
2023-01-11T10:49:19.083Z,3.10
2023-01-11T10:50:19.098Z,2.86
2023-01-11T10:51:22.076Z,3.10
2023-01-11T10:52:19.077Z,2.56
2023-01-11T10:53:19.080Z,2.64
2023-01-11T10:54:20.080Z,3.10
2023-01-11T10:55:18.092Z,2.32
2023-01-11T10:56:25.075Z,1.70
2023-01-11T10:57:22.074Z,4.48
2023-01-11T10:58:22.074Z,2.14
2023-01-11T10:59:21.074Z,3.12
2023-01-11T11:00:19.086Z,2.40
2023-01-11T11:01:22.104Z,2.50
2023-01-11T11:02:22.701Z,2.88
2023-01-11T11:03:19.074Z,2.36
2023-01-11T11:04:21.084Z,2.36
2023-01-11T11:05:19.081Z,1.92
2023-01-11T11:06:19.116Z,3.12
2023-01-11T11:07:22.084Z,3.46
2023-01-11T11:08:19.079Z,2.70
2023-01-11T11:09:19.076Z,2.86
2023-01-11T11:10:21.076Z,2.40
2023-01-11T11:11:20.078Z,2.54
2023-01-11T11:12:17.083Z,3.28
2023-01-11T11:13:19.081Z,2.84
2023-01-11T11:14:22.076Z,2.50
2023-01-11T11:15:19.074Z,2.42
2023-01-11T11:16:21.105Z,2.38
2023-01-11T11:17:19.076Z,2.98
2023-01-11T11:18:11.085Z,2.98
2023-01-11T11:19:14.078Z,4.46
2023-01-11T11:20:15.085Z,3.80
2023-01-11T11:21:16.091Z,3.00
2023-01-11T11:22:14.078Z,2.76
2023-01-11T11:23:16.076Z,3.50
2023-01-11T11:24:19.080Z,7.50
2023-01-11T11:25:16.085Z,7.56
2023-01-11T11:26:11.079Z,6.46
2023-01-11T11:27:19.089Z,6.60
2023-01-11T11:28:19.080Z,6.74
2023-01-11T11:29:11.106Z,4.18
2023-01-11T11:30:13.080Z,5.68
2023-01-11T11:31:11.106Z,5.78
2023-01-11T11:32:19.091Z,4.10
2023-01-11T11:33:19.078Z,4.80
2023-01-11T11:34:16.075Z,4.86
2023-01-11T11:35:19.077Z,4.16
2023-01-11T11:36:11.083Z,2.84
2023-01-11T11:37:17.079Z,3.18
2023-01-11T11:38:21.084Z,3.12
2023-01-11T11:39:21.085Z,2.68
2023-01-11T11:40:19.169Z,3.28
2023-01-11T11:41:15.083Z,3.64
2023-01-11T11:42:17.085Z,4.04
2023-01-11T11:43:19.089Z,2.96
2023-01-11T11:44:15.074Z,2.08
2023-01-11T11:45:16.129Z,1.98
2023-01-11T11:46:19.805Z,4.04
2023-01-11T11:47:15.081Z,2.98
2023-01-11T11:48:11.080Z,2.40
2023-01-11T11:49:16.105Z,2.56
2023-01-11T11:50:37.031Z,2.46
2023-01-11T11:51:18.310Z,2.96
2023-01-11T11:52:15.098Z,2.20
2023-01-11T11:53:17.090Z,2.50
2023-01-11T11:54:19.088Z,3.26
2023-01-11T11:55:13.076Z,2.02
2023-01-11T11:56:20.084Z,1.80
2023-01-11T11:57:19.088Z,2.18
2023-01-11T11:58:18.096Z,1.68
2023-01-11T11:59:14.078Z,1.80
2023-01-11T12:00:19.083Z,1.70
2023-01-11T12:01:20.086Z,2.96
2023-01-11T12:02:19.103Z,1.98
2023-01-11T12:03:19.079Z,2.24
2023-01-11T12:04:18.090Z,1.72
2023-01-11T12:05:11.216Z,2.10
2023-01-11T12:06:11.089Z,1.06
2023-01-11T12:07:15.119Z,0.96
2023-01-11T12:08:15.101Z,0.96
2023-01-11T12:09:17.087Z,1.38
2023-01-11T12:10:18.099Z,0.64
2023-01-11T12:11:19.086Z,0.94
2023-01-11T12:12:17.079Z,1.46
2023-01-11T12:13:19.091Z,0.66
2023-01-11T12:14:17.088Z,0.50
2023-01-11T12:15:21.095Z,2.66
2023-01-11T12:16:20.137Z,1.06
2023-01-11T12:17:21.080Z,0.78
2023-01-11T12:18:19.084Z,1.04
2023-01-11T12:19:19.082Z,1.56
2023-01-11T12:20:19.081Z,1.06
2023-01-11T12:21:19.091Z,0.92
2023-01-11T12:22:19.080Z,0.94
2023-01-11T12:23:19.087Z,1.62
2023-01-11T12:24:14.109Z,0.94
2023-01-11T12:25:19.076Z,0.84
2023-01-11T12:26:20.084Z,1.78
2023-01-11T12:27:21.178Z,1.16
2023-01-11T12:28:23.089Z,0.88
2023-01-11T12:29:19.084Z,1.02
2023-01-11T12:30:20.378Z,1.68
2023-01-11T12:31:21.082Z,1.36
2023-01-11T12:32:21.091Z,1.18
2023-01-11T12:33:19.091Z,1.62
2023-01-11T12:34:19.106Z,1.72
2023-01-11T12:35:19.085Z,1.42
2023-01-11T12:36:19.084Z,2.30
2023-01-11T12:37:19.085Z,1.68
2023-01-11T12:38:19.085Z,1.26
2023-01-11T12:39:23.092Z,1.62
2023-01-11T12:40:19.103Z,1.26
2023-01-11T12:41:19.081Z,2.16
2023-01-11T12:42:19.084Z,2.16
2023-01-11T12:43:19.086Z,1.56
2023-01-11T12:44:21.250Z,2.12
2023-01-11T12:45:19.089Z,2.28
2023-01-11T12:46:21.227Z,1.28
2023-01-11T12:47:21.079Z,1.78
2023-01-11T12:48:21.090Z,1.92
2023-01-11T12:49:19.086Z,2.52
2023-01-11T12:50:19.087Z,2.88
2023-01-11T12:51:21.078Z,3.98
2023-01-11T12:52:21.086Z,4.74
2023-01-11T12:53:21.084Z,3.34
2023-01-11T12:54:19.091Z,3.34
2023-01-11T12:55:19.084Z,2.52
2023-01-11T12:56:21.081Z,2.14
2023-01-11T12:57:19.093Z,2.24
2023-01-11T12:58:21.088Z,2.62
2023-01-11T12:59:19.090Z,2.24
2023-01-11T13:00:19.065Z,2.96
2023-01-11T13:01:19.129Z,2.22
2023-01-11T13:02:19.113Z,2.16
2023-01-11T13:03:19.062Z,2.12
2023-01-11T13:04:19.077Z,2.40
2023-01-11T13:05:19.072Z,2.18
2023-01-11T13:06:16.068Z,1.88
2023-01-11T13:07:21.083Z,2.16
2023-01-11T13:08:21.070Z,2.62
2023-01-11T13:09:19.085Z,3.42
2023-01-11T13:10:21.065Z,2.46
2023-01-11T13:11:19.061Z,2.98
2023-01-11T13:12:19.076Z,1.82
2023-01-11T13:13:19.066Z,2.42
2023-01-11T13:14:20.548Z,2.70
2023-01-11T13:15:19.067Z,2.06
2023-01-11T13:16:17.170Z,2.10
2023-01-11T13:17:20.071Z,2.32
2023-01-11T13:18:19.101Z,3.16
2023-01-11T13:19:20.075Z,2.80
2023-01-11T13:20:21.082Z,2.56
2023-01-11T13:21:21.060Z,1.78
2023-01-11T13:22:16.061Z,1.84
2023-01-11T13:23:20.072Z,1.52
2023-01-11T13:24:14.077Z,1.74